sensor_id;sensor_type;location;lat;lon;timestamp;pressure;altitude;pressure_sealevel;temperature;humidity
46382;BME280;66809;52.974;-2.514;2023-05-11T00:01:50;1006.206879622876;;;10.974259106785446;40.95973258247628
46382;BME280;66809;52.974;-2.514;2023-05-11T00:03:50;1006.2110872144111;;;10.991299438241954;40.98475596468764
46382;BME280;66809;52.974;-2.514;2023-05-11T00:05:49;1006.2161470321715;;;10.998938198537527;40.99574465679527
46382;BME280;66809;52.974;-2.514;2023-05-11T00:07:50;1006.2186083745273;;;11.002064182337369;41.00251296215224
46382;BME280;66809;52.974;-2.514;2023-05-11T00:09:50;1006.2214686727509;;;11.014372438558123;41.010363763758974
46382;BME280;66809;52.974;-2.514;2023-05-11T00:11:51;1006.2252120728615;;;11.026848744622573;41.03008762268473
46382;BME280;66809;52.974;-2.514;2023-05-11T00:13:50;1006.2291894129962;;;11.051920667769972;41.04519664036592
46382;BME280;66809;52.974;-2.514;2023-05-11T00:15:50;1006.2330652224442;;;11.08056349120808;41.04568627656428
46382;BME280;66809;52.974;-2.514;2023-05-11T00:17:50;1006.2357459235621;;;11.098155839997583;41.04048034190585
46382;BME280;66809;52.974;-2.514;2023-05-11T00:19:50;1006.2378497001368;;;11.107398586781523;41.02104253708433
46382;BME280;66809;52.974;-2.514;2023-05-11T00:21:50;1006.2400874829524;;;11.136983306492366;41.008864853299016
46382;BME280;66809;52.974;-2.514;2023-05-11T00:23:50;1006.2418681689329;;;11.150283023860027;40.989426764866806
46382;BME280;66809;52.974;-2.514;2023-05-11T00:25:50;1006.2452333234135;;;11.165339626345583;40.98255600308918
46382;BME280;66809;52.974;-2.514;2023-05-11T00:27:50;1006.2481325479814;;;11.177371461898643;40.972838833131426
46382;BME280;66809;52.974;-2.514;2023-05-11T00:29:50;1006.2517411662526;;;11.177194172284283;40.95782044987829
46382;BME280;66809;52.974;-2.514;2023-05-11T00:31:49;1006.2562165197552;;;11.16933944297213;40.95575919032399
46382;BME280;66809;52.974;-2.514;2023-05-11T00:33:50;1006.2617303977007;;;11.167081369278964;40.95723165599818
46382;BME280;66809;52.974;-2.514;2023-05-11T00:35:50;1006.2668856450706;;;11.168568544407886;40.96861771279512
46382;BME280;66809;52.974;-2.514;2023-05-11T00:37:50;1006.2730561897708;;;11.172013415063587;40.97902353171939
46382;BME280;66809;52.974;-2.514;2023-05-11T00:39:50;1006.276352767186;;;11.167352335741183;40.98275402633197
46382;BME280;66809;52.974;-2.514;2023-05-11T00:41:50;1006.2792121158559;;;11.168089623066338;40.9927672255553
46382;BME280;66809;52.974;-2.514;2023-05-11T00:43:50;1006.2822246148029;;;11.159787483169476;41.01269387594979
46382;BME280;66809;52.974;-2.514;2023-05-11T00:45:51;1006.2850461220883;;;11.155417537446954;41.03016786853691
46382;BME280;66809;52.974;-2.514;2023-05-11T00:47:50;1006.2879606609073;;;11.147660694411885;41.045678632752995
46382;BME280;66809;52.974;-2.514;2023-05-11T00:49:52;1006.2907904798038;;;11.15921151552826;41.05549567695395
46382;BME280;66809;52.974;-2.514;2023-05-11T00:51:49;1006.2941257617331;;;11.17573092866693;41.06560661676373
46382;BME280;66809;52.974;-2.514;2023-05-11T00:53:50;1006.2968083865964;;;11.183300397770527;41.07454195914484
46382;BME280;66809;52.974;-2.514;2023-05-11T00:55:50;1006.2999289488208;;;11.19018089787498;41.07179506434965
46382;BME280;66809;52.974;-2.514;2023-05-11T00:57:50;1006.3026349220231;;;11.207624552748019;41.071403674734064
46382;BME280;66809;52.974;-2.514;2023-05-11T00:59:50;1006.3057745203398;;;11.208768504747946;41.072877748477964
46382;BME280;66809;52.974;-2.514;2023-05-11T01:01:50;1006.3097596365805;;;11.22169938098264;41.07827846827825
46382;BME280;66809;52.974;-2.514;2023-05-11T01:03:50;1006.3141539132627;;;11.23498315308406;41.07523668239192
46382;BME280;66809;52.974;-2.514;2023-05-11T01:06:00;1006.318495908121;;;11.240057210448986;41.07229006268628
46382;BME280;66809;52.974;-2.514;2023-05-11T01:07:57;1006.3238212445159;;;11.240933139040033;41.070030459232484
46382;BME280;66809;52.974;-2.514;2023-05-11T01:09:58;1006.3294432251686;;;11.24571395531051;41.0744498478597
46382;BME280;66809;52.974;-2.514;2023-05-11T01:11:52;1006.3351106207081;;;11.250780446673785;41.08132456133209
46382;BME280;66809;52.974;-2.514;2023-05-11T01:13:53;1006.33978227919;;;11.245479978033137;41.08770899484157
46382;BME280;66809;52.974;-2.514;2023-05-11T01:15:52;1006.345223696049;;;11.240529464332019;41.090360638627295
46382;BME280;66809;52.974;-2.514;2023-05-11T01:17:55;1006.3513826275164;;;11.241153337665795;41.09232380859107
46382;BME280;66809;52.974;-2.514;2023-05-11T01:19:56;1006.35655563677;;;11.244825076307654;41.09870733422401
46382;BME280;66809;52.974;-2.514;2023-05-11T01:21:50;1006.3629345294734;;;11.239472082867326;41.10646709012808
46382;BME280;66809;52.974;-2.514;2023-05-11T01:24:11;1006.370582080619;;;11.251796744183459;41.11854689317741
46382;BME280;66809;52.974;-2.514;2023-05-11T01:26:08;1006.3778525120028;;;11.249258466671868;41.12060877166557
46382;BME280;66809;52.974;-2.514;2023-05-11T01:28:11;1006.3854537933559;;;11.238386542035736;41.12581256536546
46382;BME280;66809;52.974;-2.514;2023-05-11T01:30:35;1006.3912703249791;;;11.236026809503585;41.13700452667362
46382;BME280;66809;52.974;-2.514;2023-05-11T01:31:51;1006.3979464224186;;;11.245622041905664;41.14191387273978
46382;BME280;66809;52.974;-2.514;2023-05-11T01:33:54;1006.4043893490367;;;11.255108044741235;41.142405543131375
46382;BME280;66809;52.974;-2.514;2023-05-11T01:35:53;1006.4110895075921;;;11.258047951158062;41.13622225189427
46382;BME280;66809;52.974;-2.514;2023-05-11T01:37:54;1006.417161066986;;;11.266854220507577;41.134946533132705
46382;BME280;66809;52.974;-2.514;2023-05-11T01:39:52;1006.4259691278804;;;11.268240571462885;41.14417471629178
46382;BME280;66809;52.974;-2.514;2023-05-11T01:41:52;1006.4341445291403;;;11.259411196900924;41.149181184584364
46382;BME280;66809;52.974;-2.514;2023-05-11T01:43:53;1006.4439046030341;;;11.266268171322546;41.151635725237725
46382;BME280;66809;52.974;-2.514;2023-05-11T01:45:51;1006.4538720951243;;;11.270621312824199;41.154776057254274
46382;BME280;66809;52.974;-2.514;2023-05-11T01:47:50;1006.4642722172612;;;11.262916567410354;41.161249096961996
46382;BME280;66809;52.974;-2.514;2023-05-11T01:49:51;1006.4750438906649;;;11.264010529944606;41.177240769610606
46382;BME280;66809;52.974;-2.514;2023-05-11T01:51:51;1006.4859000890608;;;11.239987181676756;41.19352447327405
46382;BME280;66809;52.974;-2.514;2023-05-11T01:53:51;1006.4964138233489;;;11.23077930126856;41.211865053130126
46382;BME280;66809;52.974;-2.514;2023-05-11T01:55:50;1006.5075156570218;;;11.23122419986633;41.23776669388958
46382;BME280;66809;52.974;-2.514;2023-05-11T01:57:52;1006.5191842354101;;;11.22044511875052;41.2675914891981
46382;BME280;66809;52.974;-2.514;2023-05-11T01:59:51;1006.5308337905248;;;11.212781128291137;41.29388154955488
46382;BME280;66809;52.974;-2.514;2023-05-11T02:01:50;1006.5415216833286;;;11.186742108847382;41.32056180768533
46382;BME280;66809;52.974;-2.514;2023-05-11T02:03:50;1006.5520726775106;;;11.16566117472829;41.3492084023567
46382;BME280;66809;52.974;-2.514;2023-05-11T02:05:50;1006.5617368308211;;;11.143958481419732;41.37913614904607
46382;BME280;66809;52.974;-2.514;2023-05-11T02:07:50;1006.571576648493;;;11.135899584886841;41.406907910810254
46382;BME280;66809;52.974;-2.514;2023-05-11T02:09:51;1006.5798813609474;;;11.124599563774252;41.42839267529812
46382;BME280;66809;52.974;-2.514;2023-05-11T02:11:51;1006.5873609205868;;;11.117123344280877;41.44654136182439
46382;BME280;66809;52.974;-2.514;2023-05-11T02:13:51;1006.5954470811605;;;11.11593611059303;41.4672396125918
46382;BME280;66809;52.974;-2.514;2023-05-11T02:15:52;1006.6031495718947;;;11.09525089640226;41.49167018028845
46382;BME280;66809;52.974;-2.514;2023-05-11T02:17:52;1006.6106891082042;;;11.084501198604919;41.51924710978683
46382;BME280;66809;52.974;-2.514;2023-05-11T02:19:51;1006.619496862894;;;11.077283339863065;41.544863042974725
46382;BME280;66809;52.974;-2.514;2023-05-11T02:21:52;1006.6289410275605;;;11.068353555971688;41.5746947392888
46382;BME280;66809;52.974;-2.514;2023-05-11T02:23:50;1006.6378564662391;;;11.041518422260035;41.604917944650694
46382;BME280;66809;52.974;-2.514;2023-05-11T02:25:51;1006.647147712688;;;11.04092354538008;41.63534314525321
46382;BME280;66809;52.974;-2.514;2023-05-11T02:27:50;1006.6562038840342;;;11.042829560925602;41.6573305500954
46382;BME280;66809;52.974;-2.514;2023-05-11T02:29:50;1006.6666397750838;;;11.04702095658613;41.66979733164029
46382;BME280;66809;52.974;-2.514;2023-05-11T02:31:55;1006.6767111317172;;;11.04475321759913;41.6798085970958
46382;BME280;66809;52.974;-2.514;2023-05-11T02:33:50;1006.6877210411533;;;11.032023152931222;41.68942777748454
46382;BME280;66809;52.974;-2.514;2023-05-11T02:35:50;1006.699622474949;;;11.024629279076382;41.702089690545925
46382;BME280;66809;52.974;-2.514;2023-05-11T02:37:54;1006.7116405588587;;;11.018983049675553;41.71445634131137
46382;BME280;66809;52.974;-2.514;2023-05-11T02:39:54;1006.7218654865554;;;11.008277902550683;41.724268880184
46382;BME280;66809;52.974;-2.514;2023-05-11T02:41:55;1006.7327078166371;;;11.015917117834226;41.732314617549214
46382;BME280;66809;52.974;-2.514;2023-05-11T02:43:51;1006.7424921547714;;;11.01658172982356;41.73751160033058
46382;BME280;66809;52.974;-2.514;2023-05-11T02:45:53;1006.7514488739258;;;11.016742214907083;41.744082769377705
46382;BME280;66809;52.974;-2.514;2023-05-11T02:47:52;1006.75991149755;;;11.02481834372529;41.745846286872265
46382;BME280;66809;52.974;-2.514;2023-05-11T02:49:50;1006.7686943539317;;;11.02057527912328;41.75388587466402
46382;BME280;66809;52.974;-2.514;2023-05-11T02:51:50;1006.7767313501602;;;11.029942391293922;41.76114454304874
46382;BME280;66809;52.974;-2.514;2023-05-11T02:53:51;1006.7840425756089;;;11.035707089663958;41.76045775818152
46382;BME280;66809;52.974;-2.514;2023-05-11T02:55:50;1006.7911814069346;;;11.033446923017317;41.768400579504956
46382;BME280;66809;52.974;-2.514;2023-05-11T02:57:50;1006.7981639576582;;;11.02947818622599;41.7749678672639
46382;BME280;66809;52.974;-2.514;2023-05-11T02:59:50;1006.8053204114161;;;11.017346781077887;41.78418581462098
46382;BME280;66809;52.974;-2.514;2023-05-11T03:01:51;1006.8127424082393;;;11.025327547252598;41.796441927759275
46382;BME280;66809;52.974;-2.514;2023-05-11T03:03:50;1006.8192779155179;;;11.03130021035728;41.808400962246
46382;BME280;66809;52.974;-2.514;2023-05-11T03:05:49;1006.8258834151944;;;11.041147099640904;41.82692796278545
46382;BME280;66809;52.974;-2.514;2023-05-11T03:07:51;1006.8329891797564;;;11.049310625031076;41.855457769715784
46382;BME280;66809;52.974;-2.514;2023-05-11T03:09:50;1006.8409745356156;;;11.045048670357158;41.886336447364116
46382;BME280;66809;52.974;-2.514;2023-05-11T03:11:50;1006.8485687789712;;;11.041005169393218;41.915256967732894
46382;BME280;66809;52.974;-2.514;2023-05-11T03:13:50;1006.8562806650078;;;11.034493537730699;41.94045426041339
46382;BME280;66809;52.974;-2.514;2023-05-11T03:15:50;1006.8642120839937;;;11.036746155676857;41.96202881805637
46382;BME280;66809;52.974;-2.514;2023-05-11T03:17:51;1006.8716049144671;;;11.034161250278736;41.98664414101992
46382;BME280;66809;52.974;-2.514;2023-05-11T03:19:51;1006.8793637553879;;;11.025273911604137;42.01606569007821
46382;BME280;66809;52.974;-2.514;2023-05-11T03:21:51;1006.8848930264259;;;11.016963374715761;42.04205562338109
46382;BME280;66809;52.974;-2.514;2023-05-11T03:23:50;1006.8905683389233;;;11.023188097580102;42.06009828653457
46382;BME280;66809;52.974;-2.514;2023-05-11T03:25:50;1006.896243541761;;;11.009399381726164;42.081078514279476
46382;BME280;66809;52.974;-2.514;2023-05-11T03:27:51;1006.9021716465431;;;10.992434664313048;42.112357235640616
46382;BME280;66809;52.974;-2.514;2023-05-11T03:29:51;1006.9076218199111;;;10.990618559579845;42.15276302110922
46382;BME280;66809;52.974;-2.514;2023-05-11T03:31:50;1006.9129370084004;;;10.983491473251924;42.197385193533
46382;BME280;66809;52.974;-2.514;2023-05-11T03:33:50;1006.9167681752841;;;10.976216092733038;42.23778887087352
46382;BME280;66809;52.974;-2.514;2023-05-11T03:35:52;1006.9207757406472;;;10.96856261973985;42.281522374968596
46382;BME280;66809;52.974;-2.514;2023-05-11T03:37:51;1006.9238773867847;;;10.961976214643695;42.32113755918815
46382;BME280;66809;52.974;-2.514;2023-05-11T03:39:54;1006.9276438990623;;;10.957129048457638;42.35702587187242
46382;BME280;66809;52.974;-2.514;2023-05-11T03:41:51;1006.9306675358358;;;10.955839346097154;42.39173535302536
46382;BME280;66809;52.974;-2.514;2023-05-11T03:43:54;1006.9324219395552;;;10.949628101636554;42.420555985357616
46382;BME280;66809;52.974;-2.514;2023-05-11T03:45:52;1006.9344590850656;;;10.940091711913755;42.45702882424305
46382;BME280;66809;52.974;-2.514;2023-05-11T03:47:51;1006.93613251829;;;10.928857243773034;42.486938339648106
46382;BME280;66809;52.974;-2.514;2023-05-11T03:49:50;1006.9374624695633;;;10.920025778372171;42.50350868622468
46382;BME280;66809;52.974;-2.514;2023-05-11T03:51:50;1006.9390512621981;;;10.925091015511677;42.512720149737994
46382;BME280;66809;52.974;-2.514;2023-05-11T03:53:49;1006.9410770302889;;;10.9241899032379;42.53173908154702
46382;BME280;66809;52.974;-2.514;2023-05-11T03:55:50;1006.942467967836;;;10.910451614550112;42.5358441864303
46382;BME280;66809;52.974;-2.514;2023-05-11T03:57:50;1006.9447009967291;;;10.896464209995846;42.54357317210549
46382;BME280;66809;52.974;-2.514;2023-05-11T03:59:51;1006.9465060808535;;;10.895135460736777;42.55805982302716
46382;BME280;66809;52.974;-2.514;2023-05-11T04:01:50;1006.9490640060592;;;10.890641206179385;42.56686197858816
46382;BME280;66809;52.974;-2.514;2023-05-11T04:03:50;1006.9513266169197;;;10.89148773450886;42.56891335377512
46382;BME280;66809;52.974;-2.514;2023-05-11T04:05:50;1006.9539895660465;;;10.882515519493747;42.56263998635125
46382;BME280;66809;52.974;-2.514;2023-05-11T04:07:50;1006.9571492862501;;;10.873873930115652;42.5558758471066
46382;BME280;66809;52.974;-2.514;2023-05-11T04:09:49;1006.9601733594081;;;10.882957457477508;42.54019336856861
46382;BME280;66809;52.974;-2.514;2023-05-11T04:11:50;1006.9639011645743;;;10.885228113197348;42.523730186308256
46382;BME280;66809;52.974;-2.514;2023-05-11T04:13:50;1006.9672657658914;;;10.886437162611042;42.51099318165021
46382;BME280;66809;52.974;-2.514;2023-05-11T04:15:50;1006.9705327047469;;;10.894318341664741;42.49187698469391
46382;BME280;66809;52.974;-2.514;2023-05-11T04:17:50;1006.974372928009;;;10.896450783006093;42.462854900473175
46382;BME280;66809;52.974;-2.514;2023-05-11T04:19:50;1006.9778664057263;;;10.903792545104775;42.42637764158743
46382;BME280;66809;52.974;-2.514;2023-05-11T04:21:50;1006.9821818056241;;;10.91954568644667;42.38027832193773
46382;BME280;66809;52.974;-2.514;2023-05-11T04:23:50;1006.9860134595709;;;10.928942630049763;42.33230693297199
46382;BME280;66809;52.974;-2.514;2023-05-11T04:25:52;1006.9898769387999;;;10.950980579383435;42.28050781237561
46382;BME280;66809;52.974;-2.514;2023-05-11T04:27:50;1006.993584626675;;;10.97055334804985;42.21427247140161
46382;BME280;66809;52.974;-2.514;2023-05-11T04:29:50;1006.99710344005;;;10.982039485890214;42.14882503697588
46382;BME280;66809;52.974;-2.514;2023-05-11T04:31:50;1006.9996459860819;;;10.986520339664404;42.084369490947104
46382;BME280;66809;52.974;-2.514;2023-05-11T04:33:50;1007.0026162916095;;;11.006861041432607;42.03277546514671
46382;BME280;66809;52.974;-2.514;2023-05-11T04:35:52;1007.004773604645;;;11.03147843100327;41.9765765938607
46382;BME280;66809;52.974;-2.514;2023-05-11T04:37:50;1007.0068046277011;;;11.052423262562153;41.91034987549196
46382;BME280;66809;52.974;-2.514;2023-05-11T04:39:50;1007.00891101395;;;11.07426166012907;41.84225337873509
46382;BME280;66809;52.974;-2.514;2023-05-11T04:41:50;1007.0125828278374;;;11.087069027333127;41.78447360257543
46382;BME280;66809;52.974;-2.514;2023-05-11T04:43:50;1007.016822035774;;;11.107419404688066;41.73435771018964
46382;BME280;66809;52.974;-2.514;2023-05-11T04:45:50;1007.0213400517116;;;11.125511729580031;41.667742784042005
46382;BME280;66809;52.974;-2.514;2023-05-11T04:47:50;1007.0266102052162;;;11.15216456027681;41.60808454471222
46382;BME280;66809;52.974;-2.514;2023-05-11T04:49:50;1007.03241412686;;;11.174013474343566;41.54970073272931
46382;BME280;66809;52.974;-2.514;2023-05-11T04:51:50;1007.0386979560828;;;11.177173116458185;41.50093351460135
46382;BME280;66809;52.974;-2.514;2023-05-11T04:53:50;1007.0451445848754;;;11.196324115978848;41.44716790880134
46382;BME280;66809;52.974;-2.514;2023-05-11T04:55:49;1007.0519193748759;;;11.222208153206404;41.39565495689934
46382;BME280;66809;52.974;-2.514;2023-05-11T04:57:50;1007.0580801385422;;;11.25620653976144;41.33934669093376
46382;BME280;66809;52.974;-2.514;2023-05-11T04:59:50;1007.0645553417647;;;11.283240817651441;41.27392169572538
46382;BME280;66809;52.974;-2.514;2023-05-11T05:01:50;1007.0711331887674;;;11.31055236614179;41.20701768346665
46382;BME280;66809;52.974;-2.514;2023-05-11T05:03:50;1007.078929021229;;;11.336441881391778;41.145095092922496
46382;BME280;66809;52.974;-2.514;2023-05-11T05:05:50;1007.0856503056085;;;11.365247793209672;41.09013121753402
46382;BME280;66809;52.974;-2.514;2023-05-11T05:07:50;1007.0928550474678;;;11.394722935448728;41.03606624930407
46382;BME280;66809;52.974;-2.514;2023-05-11T05:09:50;1007.1001861361268;;;11.418184272180955;40.98189031169688
46382;BME280;66809;52.974;-2.514;2023-05-11T05:11:49;1007.1087344776776;;;11.441836765968276;40.929660304337425
46382;BME280;66809;52.974;-2.514;2023-05-11T05:13:50;1007.1178251577965;;;11.465240140785449;40.87989105092183
46382;BME280;66809;52.974;-2.514;2023-05-11T05:15:50;1007.1280019475146;;;11.484271469203103;40.8404188352106
46382;BME280;66809;52.974;-2.514;2023-05-11T05:17:49;1007.1376938912114;;;11.509227978001672;40.812624481322665
46382;BME280;66809;52.974;-2.514;2023-05-11T05:19:50;1007.1476984498996;;;11.521829173328928;40.79081391546079
46382;BME280;66809;52.974;-2.514;2023-05-11T05:21:50;1007.1581363701439;;;11.532153399800178;40.774203584964695
46382;BME280;66809;52.974;-2.514;2023-05-11T05:23:49;1007.1698247583548;;;11.539931781925263;40.76397588137651
46382;BME280;66809;52.974;-2.514;2023-05-11T05:25:50;1007.181297843181;;;11.541158604857277;40.75797401381817
46382;BME280;66809;52.974;-2.514;2023-05-11T05:27:50;1007.1940676556958;;;11.562399303766671;40.76209030734858
46382;BME280;66809;52.974;-2.514;2023-05-11T05:29:50;1007.2074777105264;;;11.577577890621727;40.75833787782393
46382;BME280;66809;52.974;-2.514;2023-05-11T05:31:50;1007.2214877844383;;;11.596688688933138;40.74780199452582
46382;BME280;66809;52.974;-2.514;2023-05-11T05:33:50;1007.2356936193141;;;11.610701491582635;40.73481736847246
46382;BME280;66809;52.974;-2.514;2023-05-11T05:35:49;1007.2512365153522;;;11.621319823847633;40.7188835709136
46382;BME280;66809;52.974;-2.514;2023-05-11T05:37:49;1007.2678615353341;;;11.632677564141613;40.716015416953745
46382;BME280;66809;52.974;-2.514;2023-05-11T05:39:50;1007.2851804451467;;;11.652292526831811;40.7104835052277
46382;BME280;66809;52.974;-2.514;2023-05-11T05:41:50;1007.301097277297;;;11.674234901093113;40.69777826576305
46382;BME280;66809;52.974;-2.514;2023-05-11T05:43:50;1007.3177268634839;;;11.686149343174781;40.68016200515071
46382;BME280;66809;52.974;-2.514;2023-05-11T05:45:50;1007.3352201163539;;;11.709652409969156;40.67227314847473
46382;BME280;66809;52.974;-2.514;2023-05-11T05:47:50;1007.3521478454336;;;11.723824913484119;40.67264775290793
46382;BME280;66809;52.974;-2.514;2023-05-11T05:49:50;1007.3687485659633;;;11.745523650348245;40.67075648939367
46382;BME280;66809;52.974;-2.514;2023-05-11T05:51:50;1007.3853792804316;;;11.768261333440467;40.65853183851182
46382;BME280;66809;52.974;-2.514;2023-05-11T05:53:50;1007.4017642772036;;;11.78708027838967;40.64650625435387
46382;BME280;66809;52.974;-2.514;2023-05-11T05:55:50;1007.4187773497092;;;11.804745201578568;40.64234837425126
46382;BME280;66809;52.974;-2.514;2023-05-11T05:57:49;1007.4357118017884;;;11.830334205684341;40.63602545465797
46382;BME280;66809;52.974;-2.514;2023-05-11T05:59:50;1007.4538911176654;;;11.854124375904762;40.632550182683985
46382;BME280;66809;52.974;-2.514;2023-05-11T06:01:50;1007.4722822561524;;;11.882745840567907;40.62187388359714
46382;BME280;66809;52.974;-2.514;2023-05-11T06:03:50;1007.4904509263267;;;11.906473138018288;40.610891368665676
46382;BME280;66809;52.974;-2.514;2023-05-11T06:05:50;1007.5085673077897;;;11.948513768967127;40.59941439899799
46382;BME280;66809;52.974;-2.514;2023-05-11T06:07:50;1007.5255418952695;;;11.982842564170074;40.572968340799115
46382;BME280;66809;52.974;-2.514;2023-05-11T06:09:49;1007.5424241077204;;;12.016944512538572;40.54010649626742
46382;BME280;66809;52.974;-2.514;2023-05-11T06:11:50;1007.5578205976475;;;12.044786024527271;40.51748746227877
46382;BME280;66809;52.974;-2.514;2023-05-11T06:13:50;1007.5739835877929;;;12.084484626398243;40.49113444918018
46382;BME280;66809;52.974;-2.514;2023-05-11T06:15:49;1007.5898328127237;;;12.126107342392887;40.461228468622245
46382;BME280;66809;52.974;-2.514;2023-05-11T06:17:50;1007.6066537369433;;;12.153581334369028;40.42698787172547
46382;BME280;66809;52.974;-2.514;2023-05-11T06:19:50;1007.6248958792261;;;12.200794883839219;40.39698420635743
46382;BME280;66809;52.974;-2.514;2023-05-11T06:21:49;1007.6431592225019;;;12.247319470256365;40.36362229658592
46382;BME280;66809;52.974;-2.514;2023-05-11T06:23:50;1007.6612616406131;;;12.293692829650075;40.329175280059395
46382;BME280;66809;52.974;-2.514;2023-05-11T06:25:50;1007.679710805509;;;12.344643254456548;40.29108434945957
46382;BME280;66809;52.974;-2.514;2023-05-11T06:27:50;1007.6980836976797;;;12.380305194520796;40.25140924252937
46382;BME280;66809;52.974;-2.514;2023-05-11T06:29:49;1007.7167355353631;;;12.411482529874174;40.21397982918151
46382;BME280;66809;52.974;-2.514;2023-05-11T06:31:50;1007.7356702001211;;;12.453200363042827;40.1760465084406
46382;BME280;66809;52.974;-2.514;2023-05-11T06:33:50;1007.7550390674635;;;12.493097087233439;40.13062310496978
46382;BME280;66809;52.974;-2.514;2023-05-11T06:35:50;1007.7731941103232;;;12.545763828222096;40.091205379056795
46382;BME280;66809;52.974;-2.514;2023-05-11T06:37:50;1007.7912845514717;;;12.603699577366916;40.05494124679129
46382;BME280;66809;52.974;-2.514;2023-05-11T06:39:50;1007.8091895881834;;;12.648106221206099;40.02517123886687
46382;BME280;66809;52.974;-2.514;2023-05-11T06:41:50;1007.8284526728377;;;12.686457031393553;39.99195084054297
46382;BME280;66809;52.974;-2.514;2023-05-11T06:43:50;1007.8467720531227;;;12.731115786505475;39.95458404852073
46382;BME280;66809;52.974;-2.514;2023-05-11T06:45:50;1007.8641942268857;;;12.784286812096706;39.915527326368355
46382;BME280;66809;52.974;-2.514;2023-05-11T06:47:49;1007.8812507891411;;;12.834138207992257;39.856940203020265
46382;BME280;66809;52.974;-2.514;2023-05-11T06:49:50;1007.898078187558;;;12.875665145555319;39.787292373017046
46382;BME280;66809;52.974;-2.514;2023-05-11T06:51:50;1007.9136791125038;;;12.921931725997554;39.72383478349722
46382;BME280;66809;52.974;-2.514;2023-05-11T06:53:50;1007.9295549346425;;;12.969270914553665;39.66382645763494
46382;BME280;66809;52.974;-2.514;2023-05-11T06:55:50;1007.9446953547509;;;13.012924414674512;39.59011860355971
46382;BME280;66809;52.974;-2.514;2023-05-11T06:57:49;1007.959681529969;;;13.055852438319537;39.51550947989007
46382;BME280;66809;52.974;-2.514;2023-05-11T06:59:50;1007.9736080249934;;;13.103578952769016;39.44810094113733
46382;BME280;66809;52.974;-2.514;2023-05-11T07:01:50;1007.9871835236816;;;13.146711671193808;39.399810279908806
46382;BME280;66809;52.974;-2.514;2023-05-11T07:03:49;1008.0008343207653;;;13.18886136782481;39.34231678599818
46382;BME280;66809;52.974;-2.514;2023-05-11T07:05:50;1008.0158060284218;;;13.219938353610674;39.27463934762884
46382;BME280;66809;52.974;-2.514;2023-05-11T07:07:50;1008.0315199642171;;;13.255805405343233;39.21533066820757
46382;BME280;66809;52.974;-2.514;2023-05-11T07:09:50;1008.0464780447847;;;13.294896739833398;39.15491261214324